Beckley, WV (25801)

4:40 PM EDT on September 29, 2016 (GMT -0400)
Raleigh County Memorial | | Change Station

Elev 2513 ft 37.79 °N, 81.12 °W | Updated 7 minutes ago

Scattered Clouds
Scattered Clouds
68 °F
Feels Like 68 °F
N
14
Wind Variable Wind from ESE

Today
High -- | Low -- °F
--% Chance of Precip.
Yesterday
High -- | Low -- °F
Precip. -- in
Pressure 30.02 in
Visibility 10.0 miles
Clouds Few 3700 ft
Scattered Clouds 11000 ft
Dew Point 54 °F
Humidity 61%
Rainfall 0.00 in
Snow Depth Not available.
7:19 AM 7:10 PM
Waning Crescent, 1% visible
SPECI KBKW 292033Z AUTO 12012KT 10SM FEW037 SCT110 20/12 A3002 RMK AO2 LTG DSNT SW-NW T02000122
Pressure 30.02 in
Visibility 10.0 miles
Clouds Few 3700 ft
Scattered Clouds 11000 ft
Dew Point 54 °F
Humidity 61%
Rainfall 0.00 in
Snow Depth Not available.
7:19 AM 7:10 PM
Waning Crescent, 1% visible
SPECI KBKW 292033Z AUTO 12012KT 10SM FEW037 SCT110 20/12 A3002 RMK AO2 LTG DSNT SW-NW T02000122

10-Day Weather Forecast

Almanac

Astronomy

Sep. 29, 2016 Rise Set
Actual Time
Civil Twilight
Nautical Twilight
Astronomical Twilight
Moon
Length of Visible Light
Length of Day
Tomorrow will be .
, % of the Moon is Illuminated

Today's Extremes

State Highs State Lows

Community

WunderPhotos

Upload Photos

1,942,564 photos uploaded!

WunderBlog® & News

Nearby

Air Quality

  Air Quality AQ Index Pollutant
Not available.

Snow Depth

Station Depth Elevation

Earthquake Activity

City Distance Mag. Time & Date
Minimum magnitude displayed is 2.5.

Coastal Water Temperatures

Place Temperature

Stations

Nearby Weather Stations

Station Location Temp. Windchill Dew Point Humidity Wind Precip. Elev Updated Type
                   

Watches & Warnings

There are currently no watches in effect.